createdAt,value
2022-11-26T00:01:15.996Z,29.20
2022-11-26T00:03:43.679Z,41.75
2022-11-26T00:06:16.366Z,35.20
2022-11-26T00:08:44.346Z,53.45
2022-11-26T00:11:15.494Z,32.90
2022-11-26T00:13:42.746Z,27.45
2022-11-26T00:16:13.262Z,33.03
2022-11-26T00:18:43.910Z,42.47
2022-11-26T00:21:19.909Z,29.15
2022-11-26T00:23:46.700Z,37.35
2022-11-26T00:26:19.038Z,45.75
2022-11-26T00:28:57.466Z,35.50
2022-11-26T00:31:24.825Z,49.95
2022-11-26T00:33:51.898Z,35.97
2022-11-26T00:36:21.679Z,39.58
2022-11-26T00:38:55.011Z,33.47
2022-11-26T00:41:26.383Z,22.27
2022-11-26T00:43:53.342Z,34.85
2022-11-26T00:46:21.656Z,37.03
2022-11-26T00:48:48.811Z,36.20
2022-11-26T00:51:21.727Z,32.15
2022-11-26T00:53:50.690Z,30.30
2022-11-26T00:56:21.997Z,36.23
2022-11-26T00:58:50.252Z,40.20
2022-11-26T01:01:21.294Z,29.38
2022-11-26T01:03:48.822Z,43.80
2022-11-26T01:06:22.594Z,31.13
2022-11-26T01:08:49.669Z,41.90
2022-11-26T01:11:20.314Z,30.45
2022-11-26T01:13:48.907Z,28.67
2022-11-26T01:16:28.780Z,21.83
2022-11-26T01:18:58.447Z,27.63
2022-11-26T01:21:27.640Z,30.85
2022-11-26T01:23:54.604Z,34.95
2022-11-26T01:26:24.518Z,38.30
2022-11-26T01:31:23.975Z,41.08
2022-11-26T01:33:51.279Z,20.60
2022-11-26T01:36:35.170Z,30.45
2022-11-26T01:39:06.883Z,31.08
2022-11-26T01:41:53.913Z,27.25
2022-11-26T01:44:30.662Z,42.15
2022-11-26T01:46:58.735Z,32.92
2022-11-26T01:49:34.786Z,33.05
2022-11-26T01:52:18.534Z,36.13
2022-11-26T01:54:45.998Z,36.00
2022-11-26T01:57:16.538Z,30.38
2022-11-26T01:59:49.866Z,31.75
2022-11-26T02:02:17.987Z,36.58
2022-11-26T02:04:57.869Z,30.80
2022-11-26T02:09:53.030Z,38.33
2022-11-26T02:12:21.131Z,41.95
2022-11-26T02:14:48.456Z,41.28
2022-11-26T02:17:27.729Z,36.03
2022-11-26T02:20:03.291Z,23.92
2022-11-26T02:22:49.609Z,30.67
2022-11-26T02:25:37.500Z,23.92
2022-11-26T02:28:33.114Z,26.25
2022-11-26T02:31:23.226Z,34.90
2022-11-26T02:34:01.639Z,28.75
2022-11-26T02:36:34.798Z,40.25
2022-11-26T02:39:12.935Z,27.45
2022-11-26T02:41:58.601Z,26.95
2022-11-26T02:44:44.142Z,28.17
2022-11-26T02:47:15.506Z,28.45
2022-11-26T02:49:44.428Z,33.30
2022-11-26T02:52:13.906Z,35.75
2022-11-26T02:54:41.776Z,41.35
2022-11-26T02:57:14.366Z,22.83
2022-11-26T02:59:42.231Z,23.35
2022-11-26T03:02:15.977Z,28.02
2022-11-26T03:04:52.614Z,31.17
2022-11-26T03:07:20.458Z,29.73
2022-11-26T03:09:51.936Z,39.72
2022-11-26T03:12:19.211Z,28.20
2022-11-26T03:14:46.758Z,18.77
2022-11-26T03:17:13.921Z,23.40
2022-11-26T03:19:42.192Z,27.45
2022-11-26T03:22:09.365Z,26.67
2022-11-26T03:24:37.255Z,19.75
2022-11-26T03:27:04.367Z,24.45
2022-11-26T03:29:31.491Z,32.97
2022-11-26T03:31:58.964Z,35.97
2022-11-26T03:34:26.229Z,21.92
2022-11-26T03:36:53.219Z,37.15
2022-11-26T03:39:20.222Z,28.30
2022-11-26T03:41:47.440Z,32.20
2022-11-26T03:44:14.739Z,29.25
2022-11-26T03:46:41.799Z,26.13
2022-11-26T03:49:08.926Z,33.75
2022-11-26T03:51:35.854Z,32.97
2022-11-26T03:54:02.487Z,30.73
2022-11-26T03:56:29.303Z,32.85
2022-11-26T03:58:56.198Z,35.83
2022-11-26T04:01:23.274Z,27.73
2022-11-26T04:03:50.302Z,29.25
2022-11-26T04:06:17.348Z,26.15
2022-11-26T04:08:44.429Z,31.85
2022-11-26T04:11:12.309Z,29.40
2022-11-26T04:13:39.313Z,29.30
2022-11-26T04:16:07.013Z,22.20
2022-11-26T04:18:33.840Z,31.88
2022-11-26T04:21:00.880Z,27.35
2022-11-26T04:23:28.035Z,28.48
2022-11-26T04:25:54.960Z,29.48
2022-11-26T04:28:21.993Z,34.08
2022-11-26T04:30:48.607Z,36.03
2022-11-26T04:33:15.348Z,27.77
2022-11-26T04:35:42.508Z,22.48
2022-11-26T04:38:09.571Z,36.53
2022-11-26T04:40:36.954Z,32.60
2022-11-26T04:43:03.919Z,27.15
2022-11-26T04:45:30.946Z,28.35
2022-11-26T04:47:58.000Z,23.42
2022-11-26T04:50:25.116Z,32.33
2022-11-26T04:52:52.413Z,35.75
2022-11-26T04:55:19.644Z,32.58
2022-11-26T04:57:48.484Z,37.22
2022-11-26T05:00:17.120Z,39.53
2022-11-26T05:02:44.464Z,40.10
2022-11-26T05:05:12.395Z,28.02
2022-11-26T05:07:39.374Z,41.85
2022-11-26T05:10:07.315Z,41.30
2022-11-26T05:12:34.528Z,35.63
2022-11-26T05:15:01.384Z,39.65
2022-11-26T05:17:28.460Z,29.45
2022-11-26T05:19:55.325Z,28.40
2022-11-26T05:22:22.144Z,40.65
2022-11-26T05:24:49.051Z,35.53
2022-11-26T05:27:16.073Z,43.75
2022-11-26T05:29:43.111Z,38.47
2022-11-26T05:32:09.863Z,35.15
2022-11-26T05:34:37.147Z,35.20
2022-11-26T05:37:04.279Z,38.95
2022-11-26T05:39:31.369Z,26.48
2022-11-26T05:41:58.362Z,44.47
2022-11-26T05:44:24.991Z,37.45
2022-11-26T05:46:56.976Z,31.58
2022-11-26T05:49:24.031Z,31.77
2022-11-26T05:51:51.877Z,44.90
2022-11-26T05:54:18.950Z,38.28
2022-11-26T05:56:45.986Z,23.80
2022-11-26T05:59:13.032Z,38.33
2022-11-26T06:01:40.953Z,43.88
2022-11-26T06:04:08.036Z,40.92
2022-11-26T06:06:35.036Z,42.53
2022-11-26T06:09:02.068Z,39.45
2022-11-26T06:11:29.200Z,27.42
2022-11-26T06:13:56.129Z,41.40
2022-11-26T06:16:22.862Z,25.80
2022-11-26T06:18:49.868Z,40.65
2022-11-26T06:21:16.914Z,33.10
2022-11-26T06:23:52.933Z,35.97
2022-11-26T06:26:22.854Z,37.42
2022-11-26T06:28:49.884Z,30.42
2022-11-26T06:31:16.645Z,51.40
2022-11-26T06:33:43.634Z,43.50
2022-11-26T06:36:10.796Z,26.85
2022-11-26T06:38:37.754Z,39.60
2022-11-26T06:41:07.964Z,39.35
2022-11-26T06:43:35.663Z,46.50
2022-11-26T06:46:08.489Z,45.78
2022-11-26T06:48:36.667Z,54.50
2022-11-26T06:51:12.447Z,45.25
2022-11-26T06:53:39.412Z,48.25
2022-11-26T06:56:16.411Z,35.70
2022-11-26T06:58:46.562Z,21.85
2022-11-26T07:01:23.997Z,36.00
2022-11-26T07:03:51.452Z,32.60
2022-11-26T07:06:24.368Z,28.40
2022-11-26T07:08:53.186Z,26.45
2022-11-26T07:11:21.016Z,47.45
2022-11-26T07:13:47.794Z,23.45
2022-11-26T07:16:15.314Z,46.60
2022-11-26T07:18:42.516Z,36.20
2022-11-26T07:21:13.114Z,37.22
2022-11-26T07:23:40.604Z,32.92
2022-11-26T07:26:08.900Z,30.88
2022-11-26T07:28:36.471Z,40.60
2022-11-26T07:31:04.889Z,65.68
2022-11-26T07:33:32.259Z,62.15
2022-11-26T07:36:04.475Z,81.28
2022-11-26T07:38:32.187Z,53.65
2022-11-26T07:41:10.836Z,45.22
2022-11-26T07:43:39.185Z,42.45
2022-11-26T07:46:07.599Z,43.35
2022-11-26T07:48:35.423Z,26.10
2022-11-26T07:51:02.797Z,30.90
2022-11-26T07:53:33.482Z,33.70
2022-11-26T07:56:03.484Z,27.25
2022-11-26T07:58:30.305Z,30.98
2022-11-26T08:00:56.946Z,28.13
2022-11-26T08:03:23.936Z,28.50
2022-11-26T08:05:50.652Z,34.17
2022-11-26T08:08:17.717Z,25.52
2022-11-26T08:10:44.682Z,22.77
2022-11-26T08:13:11.339Z,18.38
2022-11-26T08:15:38.382Z,25.25
2022-11-26T08:18:05.502Z,26.02
2022-11-26T08:20:32.480Z,30.27
2022-11-26T08:22:59.495Z,26.08
2022-11-26T08:25:26.232Z,20.63
2022-11-26T08:27:53.223Z,24.45
2022-11-26T08:30:20.307Z,29.77
2022-11-26T08:32:47.283Z,24.58
2022-11-26T08:35:14.388Z,29.75
2022-11-26T08:37:42.616Z,27.15
2022-11-26T08:40:11.962Z,23.10
2022-11-26T08:42:40.863Z,20.58
2022-11-26T08:45:08.216Z,28.42
2022-11-26T08:47:34.937Z,16.88
2022-11-26T08:50:02.012Z,20.80
2022-11-26T08:52:29.035Z,19.83
2022-11-26T08:54:56.059Z,19.42
2022-11-26T08:57:22.797Z,21.13
2022-11-26T08:59:50.637Z,16.33
2022-11-26T09:02:19.085Z,28.50
2022-11-26T09:04:46.044Z,14.75
2022-11-26T09:07:13.128Z,14.80
2022-11-26T09:09:40.025Z,19.80
2022-11-26T09:12:07.358Z,13.20
2022-11-26T09:14:40.690Z,26.35
2022-11-26T09:17:09.851Z,27.48
2022-11-26T09:19:36.846Z,24.20
2022-11-26T09:22:03.860Z,18.85
2022-11-26T09:24:30.913Z,19.67
2022-11-26T09:27:00.535Z,21.38
2022-11-26T09:29:30.956Z,13.35
2022-11-26T09:34:44.480Z,19.48
2022-11-26T09:37:11.618Z,21.30
2022-11-26T09:39:38.570Z,16.63
2022-11-26T09:42:08.215Z,20.27
2022-11-26T09:45:05.456Z,18.98
2022-11-26T09:47:39.452Z,19.33
2022-11-26T09:50:12.623Z,19.13
2022-11-26T09:52:59.220Z,15.52
2022-11-26T09:55:35.345Z,17.40
2022-11-26T09:58:12.789Z,14.63
2022-11-26T10:00:50.878Z,20.33
2022-11-26T10:03:22.680Z,15.77
2022-11-26T10:06:20.351Z,21.88
2022-11-26T10:09:21.483Z,19.63
2022-11-26T10:12:25.439Z,13.15
2022-11-26T10:15:10.325Z,14.77
2022-11-26T10:17:40.039Z,16.42
2022-11-26T10:20:15.663Z,9.65
2022-11-26T10:23:21.565Z,14.75
2022-11-26T10:26:06.668Z,17.27
2022-11-26T10:28:35.376Z,22.10
2022-11-26T10:31:15.039Z,16.65
2022-11-26T10:33:54.286Z,20.25
2022-11-26T10:36:39.119Z,14.93
2022-11-26T10:39:07.317Z,17.80
2022-11-26T10:41:36.755Z,18.65
2022-11-26T10:44:28.468Z,19.20
2022-11-26T10:46:55.787Z,15.63
2022-11-26T10:49:25.651Z,15.70
2022-11-26T10:54:37.514Z,13.23
2022-11-26T10:57:17.942Z,13.90
2022-11-26T10:59:44.554Z,22.60
2022-11-26T11:02:19.863Z,13.45
2022-11-26T11:04:51.641Z,7.80
2022-11-26T11:07:38.024Z,14.80
2022-11-26T11:10:13.424Z,16.02
2022-11-26T11:12:41.850Z,14.82
2022-11-26T11:15:21.121Z,24.13
2022-11-26T11:18:04.991Z,13.32
2022-11-26T11:20:40.082Z,8.30
2022-11-26T11:23:10.403Z,10.75
2022-11-26T11:25:46.400Z,18.75
2022-11-26T11:28:20.932Z,11.80
2022-11-26T11:30:59.589Z,15.82
2022-11-26T11:33:28.906Z,16.50
2022-11-26T11:36:05.437Z,17.02
2022-11-26T11:38:47.611Z,13.45
2022-11-26T11:41:32.313Z,26.38
2022-11-26T11:44:18.835Z,14.32
2022-11-26T11:47:08.157Z,25.23
2022-11-26T11:49:55.347Z,21.73
2022-11-26T11:52:38.654Z,18.00
2022-11-26T11:55:31.628Z,17.50
2022-11-26T11:58:23.357Z,10.25
2022-11-26T12:01:00.109Z,9.63
2022-11-26T12:03:49.745Z,11.93
2022-11-26T12:06:16.463Z,11.95
2022-11-26T12:09:01.486Z,15.93
2022-11-26T12:11:46.270Z,10.98
2022-11-26T12:14:34.667Z,17.08
2022-11-26T12:17:14.679Z,16.35
2022-11-26T12:19:49.351Z,20.88
2022-11-26T12:22:53.772Z,10.45
2022-11-26T12:25:23.306Z,22.75
2022-11-26T12:27:58.159Z,18.90
2022-11-26T12:30:35.387Z,15.88
2022-11-26T12:33:24.865Z,14.95
2022-11-26T12:35:59.483Z,17.00
2022-11-26T12:38:34.922Z,15.35
2022-11-26T12:41:20.286Z,15.90
2022-11-26T12:44:06.376Z,12.30
2022-11-26T12:46:51.646Z,18.40
2022-11-26T12:49:50.841Z,16.27
2022-11-26T12:52:42.891Z,14.13
2022-11-26T12:55:22.002Z,13.35
2022-11-26T12:57:51.008Z,15.68
2022-11-26T13:00:30.122Z,15.02
2022-11-26T13:02:59.889Z,17.83
2022-11-26T13:06:02.860Z,17.42
2022-11-26T13:08:51.442Z,13.70
2022-11-26T13:11:21.700Z,15.30
2022-11-26T13:13:52.409Z,18.58
2022-11-26T13:16:25.536Z,16.02
2022-11-26T13:19:19.159Z,15.30
2022-11-26T13:22:38.326Z,17.45
2022-11-26T13:25:20.076Z,16.85
2022-11-26T13:28:08.249Z,22.27
2022-11-26T13:31:15.011Z,13.27
2022-11-26T13:33:54.783Z,14.63
2022-11-26T13:39:38.863Z,13.05
2022-11-26T13:42:34.619Z,17.90
2022-11-26T13:45:13.073Z,11.13
2022-11-26T13:47:51.156Z,13.32
2022-11-26T13:50:41.016Z,11.80
2022-11-26T13:53:32.004Z,13.65
2022-11-26T13:56:07.987Z,14.82
2022-11-26T13:58:43.804Z,17.77
2022-11-26T14:01:31.004Z,14.90
2022-11-26T14:03:58.556Z,14.30
2022-11-26T14:06:25.411Z,18.08
2022-11-26T14:08:53.347Z,23.95
2022-11-26T14:11:45.089Z,25.20
2022-11-26T14:14:26.877Z,66.32
2022-11-26T14:17:02.702Z,30.00
2022-11-26T14:19:42.250Z,19.13
2022-11-26T14:22:21.414Z,23.15
2022-11-26T14:24:51.009Z,22.83
2022-11-26T14:27:18.607Z,20.05
2022-11-26T14:29:47.682Z,21.27
2022-11-26T14:32:21.413Z,18.95
2022-11-26T14:34:56.873Z,13.25
2022-11-26T14:37:26.885Z,18.00
2022-11-26T14:40:02.906Z,21.40
2022-11-26T14:42:30.423Z,13.95
2022-11-26T14:45:19.894Z,14.90
2022-11-26T14:47:51.144Z,9.02
2022-11-26T14:50:23.374Z,30.65
2022-11-26T14:52:58.503Z,22.95
2022-11-26T14:55:30.074Z,12.43
2022-11-26T14:58:06.154Z,32.55
2022-11-26T15:00:36.049Z,24.58
2022-11-26T15:03:04.079Z,13.65
2022-11-26T15:05:33.136Z,25.08
2022-11-26T15:08:14.609Z,26.17
2022-11-26T15:10:52.625Z,14.07
2022-11-26T15:13:36.742Z,29.63
2022-11-26T15:16:21.596Z,22.83
2022-11-26T15:18:48.717Z,14.65
2022-11-26T15:21:18.940Z,14.30
2022-11-26T15:23:45.970Z,25.00
2022-11-26T15:26:18.111Z,11.52
2022-11-26T15:28:45.035Z,25.42
2022-11-26T15:31:12.254Z,19.58
2022-11-26T15:33:39.789Z,13.27
2022-11-26T15:36:10.397Z,10.63
2022-11-26T15:39:00.351Z,23.08
2022-11-26T15:41:27.297Z,22.83
2022-11-26T15:44:01.175Z,10.73
2022-11-26T15:46:32.532Z,20.15
2022-11-26T15:49:03.828Z,36.08
2022-11-26T15:51:38.544Z,18.80
2022-11-26T15:54:24.418Z,19.23
2022-11-26T15:56:55.055Z,31.98
2022-11-26T15:59:24.198Z,31.13
2022-11-26T16:01:51.276Z,36.80
2022-11-26T16:04:33.635Z,74.47
2022-11-26T16:07:17.571Z,28.08
2022-11-26T16:09:45.837Z,29.73
2022-11-26T16:12:34.112Z,33.03
2022-11-26T16:15:19.115Z,20.63
2022-11-26T16:17:47.702Z,37.42
2022-11-26T16:20:23.354Z,16.45
2022-11-26T16:22:59.629Z,20.60
2022-11-26T16:25:33.086Z,20.00
2022-11-26T16:28:12.490Z,17.45
2022-11-26T16:30:41.424Z,13.13
2022-11-26T16:33:08.500Z,17.63
2022-11-26T16:35:51.184Z,14.65
2022-11-26T16:38:26.388Z,28.08
2022-11-26T16:40:54.308Z,23.50
2022-11-26T16:43:21.976Z,26.40
2022-11-26T16:45:53.009Z,21.90
2022-11-26T16:48:24.774Z,14.75
2022-11-26T16:50:55.333Z,21.23
2022-11-26T16:53:22.863Z,15.95
2022-11-26T16:55:51.033Z,22.27
2022-11-26T16:58:36.779Z,16.73
2022-11-26T17:01:04.213Z,26.42
2022-11-26T17:03:33.137Z,14.90
2022-11-26T17:06:10.898Z,23.00
2022-11-26T17:08:37.793Z,10.95
2022-11-26T17:11:04.912Z,14.52
2022-11-26T17:13:31.956Z,18.98
2022-11-26T17:15:59.020Z,23.77
2022-11-26T17:18:26.361Z,30.40
2022-11-26T17:20:54.045Z,16.13
2022-11-26T17:23:20.936Z,20.55
2022-11-26T17:25:52.406Z,23.15
2022-11-26T17:28:21.188Z,17.50
2022-11-26T17:30:47.952Z,13.82
2022-11-26T17:33:14.942Z,15.68
2022-11-26T17:35:41.954Z,16.45
2022-11-26T17:38:26.769Z,24.48
2022-11-26T17:40:53.603Z,19.67
2022-11-26T17:43:20.634Z,22.05
2022-11-26T17:45:47.678Z,17.77
2022-11-26T17:48:14.780Z,45.55
2022-11-26T17:50:42.581Z,25.98
2022-11-26T17:53:09.729Z,75.60
2022-11-26T17:55:36.840Z,42.33
2022-11-26T17:58:03.792Z,30.40
2022-11-26T18:00:30.620Z,16.65
2022-11-26T18:02:57.892Z,26.50
2022-11-26T18:05:25.943Z,16.75
2022-11-26T18:07:52.961Z,11.35
2022-11-26T18:10:22.116Z,19.25
2022-11-26T18:12:51.813Z,19.73
2022-11-26T18:15:21.716Z,18.05
2022-11-26T18:20:19.729Z,21.20
2022-11-26T18:22:49.617Z,14.32
2022-11-26T18:27:46.558Z,21.13
2022-11-26T18:30:13.607Z,22.50
2022-11-26T18:32:40.593Z,12.82
2022-11-26T18:35:08.039Z,14.50
2022-11-26T18:37:38.584Z,11.43
2022-11-26T18:40:08.067Z,16.13
2022-11-26T18:42:37.482Z,13.45
2022-11-26T18:45:10.716Z,17.27
2022-11-26T18:47:38.217Z,13.98
2022-11-26T18:50:06.363Z,12.30
2022-11-26T18:52:33.322Z,13.98
2022-11-26T18:55:00.381Z,12.93
2022-11-26T18:57:27.780Z,17.30
2022-11-26T18:59:54.787Z,11.55
2022-11-26T19:02:21.903Z,17.42
2022-11-26T19:04:48.852Z,18.00
2022-11-26T19:07:15.773Z,20.15
2022-11-26T19:09:43.002Z,11.98
2022-11-26T19:12:12.675Z,13.38
2022-11-26T19:14:39.728Z,15.15
2022-11-26T19:17:06.622Z,19.52
2022-11-26T19:19:33.620Z,14.38
2022-11-26T19:22:01.876Z,18.25
2022-11-26T19:24:29.940Z,22.65
2022-11-26T19:26:57.437Z,21.85
2022-11-26T19:29:24.446Z,27.15
2022-11-26T19:31:51.545Z,27.67
2022-11-26T19:34:18.492Z,24.05
2022-11-26T19:36:48.662Z,17.67
2022-11-26T19:39:16.603Z,46.30
2022-11-26T19:41:44.040Z,36.90
2022-11-26T19:44:12.174Z,16.38
2022-11-26T19:46:40.950Z,19.25
2022-11-26T19:49:12.044Z,18.67
2022-11-26T19:51:38.789Z,13.57
2022-11-26T19:54:06.305Z,18.83
2022-11-26T19:56:33.661Z,18.90
2022-11-26T19:59:02.002Z,14.98
2022-11-26T20:01:33.981Z,16.52
2022-11-26T20:04:04.417Z,15.00
2022-11-26T20:06:32.626Z,16.98
2022-11-26T20:08:59.639Z,32.80
2022-11-26T20:11:28.585Z,18.55
2022-11-26T20:13:57.498Z,14.07
2022-11-26T20:16:27.268Z,20.83
2022-11-26T20:18:54.885Z,22.73
2022-11-26T20:21:25.476Z,17.58
2022-11-26T20:23:53.920Z,19.15
2022-11-26T20:26:26.486Z,21.30
2022-11-26T20:28:54.184Z,22.15
2022-11-26T20:31:23.977Z,13.05
2022-11-26T20:33:52.670Z,13.75
2022-11-26T20:36:22.552Z,21.13
2022-11-26T20:41:20.691Z,14.25
2022-11-26T20:43:47.898Z,17.60
2022-11-26T20:46:15.366Z,16.45
2022-11-26T20:48:44.269Z,16.30
2022-11-26T20:51:14.028Z,15.25
2022-11-26T20:53:42.287Z,23.92
2022-11-26T20:56:09.533Z,22.23
2022-11-26T20:58:36.647Z,21.10
2022-11-26T21:01:03.685Z,20.73
2022-11-26T21:03:31.498Z,14.30
2022-11-26T21:06:02.682Z,31.52
2022-11-26T21:08:29.952Z,24.52
2022-11-26T21:10:56.851Z,22.77
2022-11-26T21:13:23.818Z,24.27
2022-11-26T21:15:50.587Z,21.48
2022-11-26T21:18:17.705Z,22.58
2022-11-26T21:20:44.839Z,35.03
2022-11-26T21:23:13.115Z,45.85
2022-11-26T21:25:42.228Z,24.35
2022-11-26T21:28:10.436Z,29.55
2022-11-26T21:30:38.192Z,28.08
2022-11-26T21:33:09.255Z,41.47
2022-11-26T21:35:37.601Z,29.35
2022-11-26T21:38:05.793Z,23.80
2022-11-26T21:40:33.483Z,22.23
2022-11-26T21:43:00.227Z,22.20
2022-11-26T21:45:27.771Z,22.42
2022-11-26T21:47:54.600Z,22.67
2022-11-26T21:50:21.533Z,11.93
2022-11-26T21:52:48.415Z,18.23
2022-11-26T21:55:15.136Z,14.13
2022-11-26T21:57:41.770Z,9.18
2022-11-26T22:00:09.188Z,12.35
2022-11-26T22:02:36.336Z,20.20
2022-11-26T22:05:03.470Z,17.98
2022-11-26T22:07:30.621Z,15.32
2022-11-26T22:09:57.498Z,14.52
2022-11-26T22:12:24.339Z,16.50
2022-11-26T22:14:51.183Z,17.27
2022-11-26T22:17:17.992Z,20.23
2022-11-26T22:19:44.715Z,23.90
2022-11-26T22:22:11.378Z,17.17
2022-11-26T22:24:38.406Z,11.50
2022-11-26T22:27:05.116Z,14.95
2022-11-26T22:29:32.135Z,12.40
2022-11-26T22:31:59.139Z,17.40
2022-11-26T22:34:27.845Z,21.40
2022-11-26T22:36:54.959Z,14.63
2022-11-26T22:39:21.597Z,11.20
2022-11-26T22:41:49.247Z,15.73
2022-11-26T22:44:16.695Z,14.05
2022-11-26T22:46:43.803Z,11.43
2022-11-26T22:49:13.506Z,10.55
2022-11-26T22:51:40.627Z,11.30
2022-11-26T22:54:09.527Z,8.93
2022-11-26T22:56:37.752Z,12.38
2022-11-26T22:59:06.501Z,21.85
2022-11-26T23:01:34.598Z,12.80
2022-11-26T23:04:04.454Z,16.90
2022-11-26T23:09:00.538Z,17.95
2022-11-26T23:11:32.084Z,13.80
2022-11-26T23:13:59.103Z,15.98
2022-11-26T23:16:27.017Z,18.50
2022-11-26T23:18:56.141Z,11.38
2022-11-26T23:21:34.992Z,9.73
2022-11-26T23:24:01.991Z,17.08
2022-11-26T23:26:31.175Z,12.20
2022-11-26T23:29:00.110Z,8.80
2022-11-26T23:31:36.119Z,17.03
2022-11-26T23:34:03.779Z,17.27
2022-11-26T23:36:31.990Z,20.88
2022-11-26T23:39:04.105Z,11.23
2022-11-26T23:41:31.120Z,16.15
2022-11-26T23:43:58.183Z,12.10
2022-11-26T23:46:31.005Z,12.23
2022-11-26T23:48:58.189Z,13.30
2022-11-26T23:51:28.010Z,11.85
2022-11-26T23:56:30.785Z,12.02
2022-11-26T23:59:01.481Z,14.23
